createdAt,value
2018-11-01T00:01:04.120Z,8.00
2018-11-01T00:03:32.492Z,8.10
2018-11-01T00:08:27.955Z,8.00
2018-11-01T00:10:55.705Z,8.00
2018-11-01T00:13:23.501Z,8.10
2018-11-01T00:15:51.322Z,8.10
2018-11-01T00:20:46.658Z,8.10
2018-11-01T00:23:14.380Z,8.00
2018-11-01T00:25:42.249Z,8.00
2018-11-01T00:28:10.022Z,8.00
2018-11-01T00:30:37.778Z,8.00
2018-11-01T00:33:05.680Z,8.00
2018-11-01T00:35:33.390Z,8.00
2018-11-01T00:38:01.141Z,8.00
2018-11-01T00:40:28.857Z,8.00
2018-11-01T00:45:24.238Z,8.00
2018-11-01T00:47:52.049Z,8.00
2018-11-01T00:50:19.891Z,8.00
2018-11-01T00:52:49.494Z,8.00
2018-11-01T00:55:17.214Z,8.00
2018-11-01T00:57:44.984Z,7.90
2018-11-01T01:00:14.281Z,7.90
2018-11-01T01:05:11.346Z,7.90
2018-11-01T01:07:39.221Z,7.90
2018-11-01T01:10:12.224Z,7.80
2018-11-01T01:12:40.296Z,7.70
2018-11-01T01:15:08.740Z,7.60
2018-11-01T01:17:36.471Z,7.50
2018-11-01T01:20:06.964Z,7.40
2018-11-01T01:22:34.722Z,7.40
2018-11-01T01:25:02.497Z,7.20
2018-11-01T01:27:30.286Z,7.10
2018-11-01T01:29:58.105Z,7.00
2018-11-01T01:32:25.876Z,6.90
2018-11-01T01:34:53.668Z,6.80
2018-11-01T01:37:21.426Z,6.70
2018-11-01T01:39:49.267Z,6.70
2018-11-01T01:42:16.998Z,6.60
2018-11-01T01:44:44.757Z,6.50
2018-11-01T01:47:12.506Z,6.50
2018-11-01T01:49:40.253Z,6.50
2018-11-01T01:52:08.001Z,6.50
2018-11-01T01:54:35.799Z,6.50
2018-11-01T01:57:03.620Z,6.50
2018-11-01T01:59:31.398Z,6.50
2018-11-01T02:01:59.178Z,6.60
2018-11-01T02:04:27.007Z,6.60
2018-11-01T02:06:54.778Z,6.60
2018-11-01T02:09:23.122Z,6.70
2018-11-01T02:11:51.024Z,6.70
2018-11-01T02:14:18.738Z,6.70
2018-11-01T02:16:46.569Z,6.70
2018-11-01T02:19:14.358Z,6.70
2018-11-01T02:21:42.351Z,6.80
2018-11-01T02:24:10.144Z,6.80
2018-11-01T02:26:37.889Z,6.80
2018-11-01T02:29:05.711Z,6.80
2018-11-01T02:31:33.453Z,6.90
2018-11-01T02:34:01.209Z,6.90
2018-11-01T02:36:29.437Z,7.00
2018-11-01T02:38:57.229Z,7.00
2018-11-01T02:43:54.428Z,7.00
2018-11-01T02:46:22.163Z,7.00
2018-11-01T02:51:17.608Z,7.00
2018-11-01T02:53:45.406Z,6.90
2018-11-01T02:56:13.181Z,6.90
2018-11-01T02:58:40.973Z,6.80
2018-11-01T03:01:12.447Z,6.80
2018-11-01T03:03:40.172Z,6.70
2018-11-01T03:06:07.935Z,6.70
2018-11-01T03:11:04.104Z,6.70
2018-11-01T03:13:31.856Z,6.70
2018-11-01T03:15:59.619Z,6.70
2018-11-01T03:18:27.381Z,6.60
2018-11-01T03:20:55.147Z,6.60
2018-11-01T03:23:22.949Z,6.50
2018-11-01T03:25:50.688Z,6.40
2018-11-01T03:28:18.418Z,6.40
2018-11-01T03:30:46.198Z,6.30
2018-11-01T03:33:13.948Z,6.20
2018-11-01T03:35:41.824Z,6.10
2018-11-01T03:38:09.546Z,6.00
2018-11-01T03:40:37.301Z,6.00
2018-11-01T03:43:05.140Z,5.90
2018-11-01T03:45:32.931Z,5.90
2018-11-01T03:48:00.697Z,5.80
2018-11-01T03:50:30.598Z,5.70
2018-11-01T03:52:58.363Z,5.70
2018-11-01T03:55:26.155Z,5.70
2018-11-01T03:57:53.865Z,5.60
2018-11-01T04:00:21.620Z,5.60
2018-11-01T04:02:49.360Z,5.60
2018-11-01T04:05:17.107Z,5.50
2018-11-01T04:07:44.866Z,5.50
2018-11-01T04:10:12.824Z,5.50
2018-11-01T04:12:40.590Z,5.50
2018-11-01T04:15:10.458Z,5.40
2018-11-01T04:17:38.164Z,5.40
2018-11-01T04:20:07.144Z,5.40
2018-11-01T04:22:34.898Z,5.40
2018-11-01T04:25:02.650Z,5.30
2018-11-01T04:27:30.402Z,5.30
2018-11-01T04:32:27.801Z,5.30
2018-11-01T04:34:55.624Z,5.30
2018-11-01T04:37:23.366Z,5.40
2018-11-01T04:39:51.068Z,5.50
2018-11-01T04:42:18.837Z,5.50
2018-11-01T04:44:46.622Z,5.50
2018-11-01T04:47:14.474Z,5.50
2018-11-01T04:49:42.217Z,5.50
2018-11-01T04:52:10.043Z,5.60
2018-11-01T04:54:37.789Z,5.70
2018-11-01T04:57:05.629Z,5.70
2018-11-01T04:59:33.433Z,5.70
2018-11-01T05:02:01.202Z,5.90
2018-11-01T05:04:28.921Z,5.90
2018-11-01T05:06:56.706Z,5.90
2018-11-01T05:09:24.452Z,5.90
2018-11-01T05:11:52.219Z,5.90
2018-11-01T05:14:19.958Z,5.90
2018-11-01T05:16:47.739Z,5.90
2018-11-01T05:19:15.492Z,5.90
2018-11-01T05:21:43.537Z,5.80
2018-11-01T05:24:11.321Z,5.80
2018-11-01T05:26:39.085Z,5.70
2018-11-01T05:31:34.474Z,5.60
2018-11-01T05:34:02.229Z,5.60
2018-11-01T05:36:29.979Z,5.60
2018-11-01T05:38:57.871Z,5.50
2018-11-01T05:41:25.720Z,5.50
2018-11-01T05:43:53.486Z,5.50
2018-11-01T05:46:21.295Z,5.50
2018-11-01T05:48:49.114Z,5.40
2018-11-01T05:51:16.850Z,5.50
2018-11-01T05:53:44.596Z,5.50
2018-11-01T05:56:12.418Z,5.60
2018-11-01T05:58:40.172Z,5.60
2018-11-01T06:01:11.624Z,5.60
2018-11-01T06:03:39.750Z,5.60
2018-11-01T06:06:07.554Z,5.60
2018-11-01T06:08:37.447Z,5.50
2018-11-01T06:11:05.421Z,5.50
2018-11-01T06:13:33.158Z,5.40
2018-11-01T06:16:01.012Z,5.30
2018-11-01T06:18:29.000Z,5.30
2018-11-01T06:20:56.731Z,5.30
2018-11-01T06:23:24.537Z,5.20
2018-11-01T06:25:52.388Z,5.20
2018-11-01T06:28:20.219Z,5.20
2018-11-01T06:30:48.020Z,5.20
2018-11-01T06:33:16.766Z,5.10
2018-11-01T06:35:48.949Z,5.10
2018-11-01T06:38:16.977Z,5.10
2018-11-01T06:40:44.765Z,5.00
2018-11-01T06:45:43.159Z,5.00
2018-11-01T06:48:11.566Z,5.10
2018-11-01T06:50:39.433Z,5.10
2018-11-01T06:53:07.291Z,5.20
2018-11-01T06:55:35.163Z,5.20
2018-11-01T07:00:31.403Z,5.30
2018-11-01T07:02:59.372Z,5.30
2018-11-01T07:05:27.256Z,5.40
2018-11-01T07:07:55.956Z,5.50
2018-11-01T07:10:24.401Z,5.60
2018-11-01T07:12:52.291Z,5.70
2018-11-01T07:17:48.540Z,5.90
2018-11-01T07:20:17.769Z,6.00
2018-11-01T07:22:49.184Z,6.10
2018-11-01T07:25:17.858Z,6.30
2018-11-01T07:27:51.248Z,6.40
2018-11-01T07:30:21.442Z,6.50
2018-11-01T07:32:51.535Z,6.80
2018-11-01T07:35:20.876Z,6.90
2018-11-01T07:40:18.900Z,7.20
2018-11-01T07:42:47.783Z,7.30
2018-11-01T07:45:16.645Z,7.50
2018-11-01T07:47:46.744Z,7.60
2018-11-01T07:50:16.367Z,7.80
2018-11-01T07:52:45.328Z,7.90
2018-11-01T07:55:16.320Z,8.00
2018-11-01T07:57:45.193Z,8.10
2018-11-01T08:00:16.420Z,8.10
2018-11-01T08:02:45.424Z,8.20
2018-11-01T08:05:14.591Z,8.30
2018-11-01T08:07:45.538Z,8.40
2018-11-01T08:10:16.338Z,8.50
2018-11-01T08:12:44.975Z,8.60
2018-11-01T08:15:15.109Z,8.70
2018-11-01T08:17:43.777Z,8.80
2018-11-01T08:20:14.269Z,9.00
2018-11-01T08:22:43.289Z,9.00
2018-11-01T08:25:13.040Z,9.10
2018-11-01T08:27:42.796Z,9.20
2018-11-01T08:30:14.566Z,9.20
2018-11-01T08:32:42.959Z,9.30
2018-11-01T08:35:12.842Z,9.40
2018-11-01T08:37:42.150Z,9.40
2018-11-01T08:40:11.406Z,9.50
2018-11-01T08:42:40.720Z,9.60
2018-11-01T08:45:11.304Z,9.70
2018-11-01T08:47:40.143Z,9.80
2018-11-01T08:50:10.461Z,9.90
2018-11-01T08:55:09.543Z,10.00
2018-11-01T08:57:38.062Z,10.10
2018-11-01T09:00:08.405Z,10.30
2018-11-01T09:02:38.116Z,10.50
2018-11-01T09:05:08.068Z,10.60
2018-11-01T09:07:36.308Z,10.60
2018-11-01T09:10:06.141Z,10.80
2018-11-01T09:12:35.088Z,10.90
2018-11-01T09:15:03.402Z,10.90
2018-11-01T09:17:32.724Z,11.10
2018-11-01T09:20:02.480Z,11.20
2018-11-01T09:22:30.418Z,11.30
2018-11-01T09:24:58.841Z,11.20
2018-11-01T09:27:27.547Z,11.30
2018-11-01T09:29:57.637Z,11.40
2018-11-01T09:32:25.585Z,11.50
2018-11-01T09:34:55.031Z,11.50
2018-11-01T09:37:23.477Z,11.50
2018-11-01T09:39:52.720Z,11.60
2018-11-01T09:42:22.062Z,11.50
2018-11-01T09:44:53.209Z,11.60
2018-11-01T09:47:21.924Z,11.70
2018-11-01T09:49:53.186Z,11.60
2018-11-01T09:52:21.754Z,11.60
2018-11-01T09:54:50.287Z,11.60
2018-11-01T09:57:20.180Z,11.70
2018-11-01T09:59:49.709Z,11.70
2018-11-01T10:02:20.344Z,11.70
2018-11-01T10:04:49.150Z,11.70
2018-11-01T10:07:17.557Z,11.50
2018-11-01T10:09:47.009Z,11.30
2018-11-01T10:12:19.798Z,11.30
2018-11-01T10:14:47.708Z,11.30
2018-11-01T10:17:16.588Z,11.30
2018-11-01T10:19:45.465Z,11.40
2018-11-01T10:22:14.307Z,11.50
2018-11-01T10:24:44.414Z,11.60
2018-11-01T10:27:19.521Z,11.70
2018-11-01T10:29:43.066Z,11.80
2018-11-01T10:32:12.667Z,12.00
2018-11-01T10:34:41.936Z,11.90
2018-11-01T10:37:12.166Z,11.80
2018-11-01T10:39:41.722Z,11.90
2018-11-01T10:42:10.462Z,12.10
2018-11-01T10:44:39.920Z,12.10
2018-11-01T10:47:08.488Z,12.10
2018-11-01T10:54:38.152Z,11.90
2018-11-01T10:57:06.729Z,11.90
2018-11-01T10:59:36.037Z,12.00
2018-11-01T11:02:10.057Z,12.10
2018-11-01T11:04:38.705Z,12.10
2018-11-01T11:07:08.188Z,12.20
2018-11-01T11:09:37.563Z,12.10
2018-11-01T11:12:07.275Z,12.00
2018-11-01T11:14:37.828Z,12.10
2018-11-01T11:19:34.169Z,12.10
2018-11-01T11:22:02.025Z,12.30
2018-11-01T11:24:29.860Z,12.30
2018-11-01T11:26:58.298Z,12.20
2018-11-01T11:29:27.429Z,12.10
2018-11-01T11:31:56.656Z,12.10
2018-11-01T11:39:20.542Z,12.00
2018-11-01T11:41:49.624Z,12.00
2018-11-01T11:44:17.764Z,11.90
2018-11-01T11:46:47.297Z,11.90
2018-11-01T11:49:15.475Z,12.00
2018-11-01T11:51:44.271Z,12.00
2018-11-01T11:54:13.033Z,11.90
2018-11-01T11:56:40.872Z,11.80
2018-11-01T11:59:08.849Z,11.70
2018-11-01T12:01:37.232Z,11.60
2018-11-01T12:04:06.061Z,11.70
2018-11-01T12:06:34.015Z,11.70
2018-11-01T12:09:01.831Z,11.70
2018-11-01T12:11:31.665Z,11.80
2018-11-01T12:13:59.541Z,11.70
2018-11-01T12:16:28.611Z,11.60
2018-11-01T12:18:58.991Z,11.70
2018-11-01T12:21:26.894Z,11.60
2018-11-01T12:23:54.754Z,11.50
2018-11-01T12:26:23.320Z,11.50
2018-11-01T12:28:52.213Z,11.60
2018-11-01T12:31:21.925Z,11.60
2018-11-01T12:33:53.825Z,11.60
2018-11-01T12:36:23.513Z,11.60
2018-11-01T12:38:56.893Z,11.70
2018-11-01T12:41:26.694Z,11.60
2018-11-01T12:43:55.433Z,11.60
2018-11-01T12:46:24.099Z,11.60
2018-11-01T12:48:52.887Z,11.70
2018-11-01T12:51:22.973Z,11.60
2018-11-01T12:53:52.764Z,11.70
2018-11-01T12:56:21.012Z,11.60
2018-11-01T12:58:48.751Z,11.60
2018-11-01T13:01:16.582Z,11.60
2018-11-01T13:03:44.334Z,11.60
2018-11-01T13:06:12.097Z,11.60
2018-11-01T13:08:39.850Z,11.60
2018-11-01T13:11:07.609Z,11.60
2018-11-01T13:13:35.467Z,11.70
2018-11-01T13:18:31.684Z,11.60
2018-11-01T13:20:59.609Z,11.50
2018-11-01T13:23:27.296Z,11.60
2018-11-01T13:25:55.067Z,11.60
2018-11-01T13:28:22.802Z,11.60
2018-11-01T13:30:50.602Z,11.60
2018-11-01T13:35:47.142Z,11.60
2018-11-01T13:38:14.915Z,11.60
2018-11-01T13:40:43.531Z,11.60
2018-11-01T13:43:10.908Z,11.50
2018-11-01T13:45:38.865Z,11.50
2018-11-01T13:48:07.025Z,11.50
2018-11-01T13:50:34.661Z,11.40
2018-11-01T13:55:30.554Z,11.20
2018-11-01T13:57:59.081Z,11.10
2018-11-01T14:00:27.744Z,11.10
2018-11-01T14:05:23.205Z,11.00
2018-11-01T14:07:50.962Z,10.90
2018-11-01T14:10:18.794Z,10.90
2018-11-01T14:12:46.636Z,10.90
2018-11-01T14:17:43.355Z,10.80
2018-11-01T14:20:12.279Z,10.80
2018-11-01T14:25:09.769Z,10.70
2018-11-01T14:27:37.603Z,10.80
2018-11-01T14:30:08.338Z,10.70
2018-11-01T14:32:36.197Z,10.60
2018-11-01T14:35:06.000Z,10.60
2018-11-01T14:37:34.663Z,10.50
2018-11-01T14:40:02.640Z,10.50
2018-11-01T14:42:30.412Z,10.40
2018-11-01T14:44:59.616Z,10.40
2018-11-01T14:47:27.485Z,10.30
2018-11-01T14:49:55.286Z,10.20
2018-11-01T14:52:23.537Z,10.10
2018-11-01T14:57:20.017Z,10.00
2018-11-01T14:59:48.102Z,10.00
2018-11-01T15:02:15.192Z,9.90
2018-11-01T15:04:42.939Z,9.90
2018-11-01T15:07:10.842Z,9.90
2018-11-01T15:09:38.987Z,9.80
2018-11-01T15:12:08.182Z,9.80
2018-11-01T15:14:40.690Z,9.80
2018-11-01T15:17:08.534Z,9.20
2018-11-01T15:19:37.125Z,9.70
2018-11-01T15:24:34.624Z,9.60
2018-11-01T15:27:02.507Z,9.60
2018-11-01T15:29:30.269Z,9.50
2018-11-01T15:32:03.008Z,9.60
2018-11-01T15:34:32.476Z,9.50
2018-11-01T15:37:00.409Z,9.50
2018-11-01T15:39:28.132Z,9.50
2018-11-01T15:41:57.146Z,9.40
2018-11-01T15:44:25.962Z,9.40
2018-11-01T15:46:53.683Z,9.40
2018-11-01T15:49:24.557Z,9.30
2018-11-01T15:51:52.511Z,9.30
2018-11-01T15:54:20.407Z,9.30
2018-11-01T15:56:48.781Z,9.30
2018-11-01T16:01:44.370Z,9.20
2018-11-01T16:04:12.240Z,9.20
2018-11-01T16:06:40.369Z,9.10
2018-11-01T16:09:10.107Z,9.10
2018-11-01T16:11:38.553Z,9.10
2018-11-01T16:14:06.388Z,9.10
2018-11-01T16:16:35.008Z,9.10
2018-11-01T16:19:02.872Z,9.10
2018-11-01T16:21:31.349Z,9.10
2018-11-01T16:26:29.797Z,9.10
2018-11-01T16:28:57.853Z,9.10
2018-11-01T16:31:25.648Z,9.10
2018-11-01T16:36:21.411Z,9.10
2018-11-01T16:38:49.666Z,9.00
2018-11-01T16:41:18.645Z,9.10
2018-11-01T16:43:47.411Z,9.10
2018-11-01T16:46:15.870Z,9.00
2018-11-01T16:48:44.205Z,9.00
2018-11-01T16:53:40.366Z,9.00
2018-11-01T16:56:08.766Z,9.00
2018-11-01T16:58:36.787Z,9.00
2018-11-01T17:01:05.736Z,8.90
2018-11-01T17:03:33.574Z,9.00
2018-11-01T17:08:34.308Z,9.00
2018-11-01T17:11:03.136Z,9.10
2018-11-01T17:16:03.301Z,9.10
2018-11-01T17:18:33.358Z,9.10
2018-11-01T17:21:02.286Z,9.10
2018-11-01T17:23:30.725Z,9.10
2018-11-01T17:25:58.797Z,9.20
2018-11-01T17:28:27.333Z,9.20
2018-11-01T17:30:55.113Z,9.20
2018-11-01T17:33:23.926Z,9.20
2018-11-01T17:35:52.561Z,9.20
2018-11-01T17:38:21.084Z,9.20
2018-11-01T17:40:49.777Z,9.20
2018-11-01T17:43:17.687Z,9.20
2018-11-01T17:45:45.515Z,9.20
2018-11-01T17:48:16.424Z,9.30
2018-11-01T17:50:44.328Z,9.30
2018-11-01T17:53:12.241Z,9.30
2018-11-01T17:55:41.078Z,9.30
2018-11-01T18:00:37.231Z,9.30
2018-11-01T18:05:35.497Z,9.30
2018-11-01T18:08:05.436Z,9.30
2018-11-01T18:10:33.176Z,9.30
2018-11-01T18:13:01.029Z,9.30
2018-11-01T18:15:30.959Z,9.30
2018-11-01T18:17:58.972Z,9.30
2018-11-01T18:20:27.517Z,9.30
2018-11-01T18:25:23.122Z,9.30
2018-11-01T18:30:18.758Z,9.30
2018-11-01T18:32:46.762Z,9.30
2018-11-01T18:35:14.515Z,9.30
2018-11-01T18:37:42.679Z,9.30
2018-11-01T18:40:13.507Z,9.40
2018-11-01T18:45:12.631Z,9.50
2018-11-01T18:47:41.164Z,9.50
2018-11-01T18:50:10.806Z,9.40
2018-11-01T18:55:07.669Z,9.40
2018-11-01T19:00:03.927Z,9.40
2018-11-01T19:09:55.231Z,9.40
2018-11-01T19:14:51.067Z,9.40
2018-11-01T19:17:19.112Z,9.50
2018-11-01T19:27:12.817Z,9.50
2018-11-01T19:29:40.685Z,9.40
2018-11-01T19:34:36.997Z,9.50
2018-11-01T19:39:32.879Z,9.50
2018-11-01T19:42:00.730Z,9.50
2018-11-01T19:44:28.738Z,9.50
2018-11-01T19:56:47.682Z,9.50
2018-11-01T20:06:39.022Z,9.60
2018-11-01T20:09:08.310Z,9.60
2018-11-01T20:11:36.577Z,9.60
2018-11-01T20:14:05.073Z,9.60
2018-11-01T20:19:01.263Z,9.60
2018-11-01T20:21:29.054Z,9.60
2018-11-01T20:23:57.100Z,9.60
2018-11-01T20:28:53.175Z,9.70
2018-11-01T20:31:26.831Z,9.60
2018-11-01T20:38:50.785Z,9.70
2018-11-01T20:41:18.735Z,9.70
2018-11-01T20:43:46.927Z,9.70
2018-11-01T20:46:15.139Z,9.70
2018-11-01T20:48:43.962Z,9.70
2018-11-01T20:51:12.106Z,9.70
2018-11-01T21:01:04.873Z,9.60
2018-11-01T21:03:32.953Z,9.60
2018-11-01T21:08:28.667Z,9.70
2018-11-01T21:10:56.945Z,9.70
2018-11-01T21:18:23.430Z,9.80
2018-11-01T21:20:51.566Z,9.80
2018-11-01T21:25:48.001Z,9.80
2018-11-01T21:30:44.360Z,9.90
2018-11-01T21:45:33.999Z,10.00
2018-11-01T21:48:02.118Z,10.00
2018-11-01T21:52:58.984Z,10.00
2018-11-01T22:00:24.046Z,10.00
2018-11-01T22:02:52.341Z,10.10
2018-11-01T22:05:20.569Z,10.00
2018-11-01T22:07:48.535Z,10.00
2018-11-01T22:20:10.195Z,10.10
2018-11-01T22:25:07.157Z,10.10
2018-11-01T22:27:35.541Z,10.20
2018-11-01T22:35:01.066Z,10.30
2018-11-01T22:37:29.101Z,10.30
2018-11-01T22:39:57.111Z,10.30
2018-11-01T22:42:25.133Z,10.30
2018-11-01T22:44:53.101Z,10.40
2018-11-01T22:49:48.727Z,10.30
2018-11-01T22:52:17.907Z,10.30
2018-11-01T22:54:47.238Z,10.30
2018-11-01T22:57:15.434Z,10.40
2018-11-01T22:59:44.192Z,10.30
2018-11-01T23:02:12.608Z,10.40
2018-11-01T23:04:41.145Z,10.30
2018-11-01T23:07:09.409Z,10.20
2018-11-01T23:09:37.454Z,10.30
2018-11-01T23:12:05.998Z,10.30
2018-11-01T23:17:01.664Z,10.30
2018-11-01T23:19:29.852Z,10.30
2018-11-01T23:21:57.676Z,10.30
2018-11-01T23:24:25.764Z,10.30
2018-11-01T23:26:54.965Z,10.30
2018-11-01T23:29:24.998Z,10.40
2018-11-01T23:31:53.065Z,10.40
2018-11-01T23:34:20.990Z,10.40
2018-11-01T23:36:54.602Z,10.40
2018-11-01T23:39:28.377Z,10.40
2018-11-01T23:42:02.030Z,10.40
2018-11-01T23:47:09.168Z,10.40
2018-11-01T23:49:56.827Z,10.40
2018-11-01T23:52:26.262Z,10.50
2018-11-01T23:54:54.373Z,10.40
2018-11-01T23:57:22.519Z,10.40
2018-11-01T23:59:51.831Z,10.40
